Fesco Vladimir — 5BSL2 — position and weather

sailwx.info

Track history (hours):
 
Tides and Currents Weather Stations Pressure Air Temp Water Temp Dewpoint Dewpoint Depression Visibility Wind Speed Wind Dir Waves Ship Positions

Fesco Vladimir

Last reported at 2016-Sep-28 16:34 UTC. Time now 2016-Sep-28 17:10 UTC.
Position N 52°05' E 003°46'.

Length 184 m; draft 8.9 m.

Type: Ship (hazmat cat A). MMSI: 209777000.

Date/timePositionNaut miles runAvg speedWind from/ knotsBaromVisibWave heightAir tempDewpointWater temp
2016-Sep-28 16:34N 52°05' E 003°46'1413.8
2016-Sep-28 15:33N 52°19' E 003°47'4615.2
2016-Sep-28 12:33N 53°02' E 004°10'35 8.6
2016-Sep-28 08:26N 53°30' E 004°47'5110.6
2016-Sep-28 03:33N 53°47' E 006°08'1110.9
2016-Sep-28 02:33N 53°50' E 006°26'1211.6
2016-Sep-28 01:33N 53°53' E 006°45'2411.7
2016-Sep-27 23:32N 53°59' E 007°24'4711.7
2016-Sep-27 19:33N 53°53' E 008°43'28 5.6
2016-Sep-27 14:33N 54°09' E 009°22'2 1.9
2016-Sep-27 13:31N 54°10' E 009°25'19 6.4
2016-Sep-27 10:33N 54°22' E 009°50'83 8.3
2016-Sep-27 00:33N 54°28' E 012°12'4912.2
2016-Sep-26 20:33N 54°55' E 013°22'1313.0
2016-Sep-26 19:33N 54°60' E 013°43'5012.6
2016-Sep-26 15:33N 55°32' E 014°51'2512.5
2016-Sep-26 13:33N 55°44' E 015°30'2812.9
2016-Sep-26 11:23N 55°58' E 016°14'316 9.1
2016-Sep-25 00:33N 59°37' E 023°20'2613.0
2016-Sep-24 22:33N 59°45' E 024°09'1312.9
2016-Sep-24 21:33N 59°48' E 024°34'5612.8
2016-Sep-24 17:09N 60°00' E 026°23'712.4
2016-Sep-24 16:33N 60°01' E 026°38'2511.9
2016-Sep-24 14:30N 60°06' E 027°26'2311.6
2016-Sep-24 12:33N 60°09' E 028°11'2412.1
2016-Sep-24 10:33N 60°02' E 028°58'1312.8
2016-Sep-24 09:33N 60°02' E 029°24'10 1.7
2016-Sep-24 03:32N 59°56' E 029°42'0 0.0
2016-Sep-24 02:32N 59°56' E 029°42'0 0.0
2016-Sep-24 01:32N 59°56' E 029°42'0 0.0
2016-Sep-24 00:32N 59°56' E 029°42'16 3.2
2016-Sep-23 19:32N 59°52' E 030°12'0 0.0
2016-Sep-23 17:32N 59°52' E 030°12'0 0.0
2016-Sep-23 16:32N 59°52' E 030°12'0 0.0
2016-Sep-23 15:32N 59°52' E 030°12'0 0.0
2016-Sep-23 13:32N 59°52' E 030°12'1 0.2
2016-Sep-23 09:33N 59°53' E 030°11'0 0.0
2016-Sep-23 06:33N 59°53' E 030°11'0 0.0
2016-Sep-23 04:33N 59°53' E 030°11'0 0.0
2016-Sep-23 03:33N 59°53' E 030°11'0 0.1
2016-Sep-23 02:33N 59°53' E 030°11'7 6.9
2016-Sep-23 01:33N 59°56' E 029°58'1111.1
2016-Sep-23 00:33N 60°00' E 029°38'42 3.4
2016-Sep-22 12:22N 59°40' E 028°24'0 0.0
2016-Sep-22 04:31N 59°40' E 028°24'0 0.0
2016-Sep-22 03:33N 59°40' E 028°24'27 9.0
2016-Sep-22 00:33N 60°07' E 028°15'1312.9
2016-Sep-21 23:33N 60°10' E 027°50'1212.5
2016-Sep-21 22:33N 60°05' E 027°27'7712.6
2016-Sep-21 16:29N 59°46' E 024°59'38212.8
2016-Sep-20 10:33N 55°44' E 015°46'2613.1
2016-Sep-20 08:33N 55°31' E 015°05'1312.7
2016-Sep-20 07:33N 55°25' E 014°45'1312.9
2016-Sep-20 06:33N 55°16' E 014°30'8812.6
2016-Sep-19 23:32N 54°32' E 012°17'4310.8
2016-Sep-19 19:34N 54°35' E 011°03'1312.5
2016-Sep-19 18:33N 54°34' E 010°41'2211.3
2016-Sep-19 16:34N 54°22' E 010°09'8 4.0
2016-Sep-19 14:33N 54°21' E 009°56'6 6.2
2016-Sep-19 13:33N 54°21' E 009°45'7 6.9
2016-Sep-19 12:33N 54°15' E 009°37'8 7.7
2016-Sep-19 11:33N 54°10' E 009°27'15 7.5
2016-Sep-19 09:33N 53°57' E 009°15'7 3.4
2016-Sep-19 07:33N 53°53' E 009°06'9 9.0
2016-Sep-19 06:33N 53°50' E 009°21'28 9.1
2016-Sep-19 03:31N 53°32' E 009°55'0 0.0
2016-Sep-19 02:31N 53°32' E 009°55'0 0.0
2016-Sep-19 00:31N 53°32' E 009°55'0 0.0
2016-Sep-18 19:31N 53°32' E 009°55'  
Track history (hours):
 
Tides and Currents Weather Stations Pressure Air Temp Water Temp Dewpoint Dewpoint Depression Visibility Wind Speed Wind Dir Waves Ship Positions

Fesco Vladimir

Last reported at 2016-Sep-28 16:34 UTC. Time now 2016-Sep-28 17:10 UTC.
Position N 52°05' E 003°46'.

Length 184 m; draft 8.9 m.

Type: Ship (hazmat cat A). MMSI: 209777000.

Date/timePositionNaut miles runAvg speedWind from/ knotsBaromVisibWave heightAir tempDewpointWater temp
2016-Sep-28 16:34N 52°05' E 003°46'1413.8
2016-Sep-28 15:33N 52°19' E 003°47'4615.2
2016-Sep-28 12:33N 53°02' E 004°10'35 8.6
2016-Sep-28 08:26N 53°30' E 004°47'5110.6
2016-Sep-28 03:33N 53°47' E 006°08'1110.9
2016-Sep-28 02:33N 53°50' E 006°26'1211.6
2016-Sep-28 01:33N 53°53' E 006°45'2411.7
2016-Sep-27 23:32N 53°59' E 007°24'4711.7
2016-Sep-27 19:33N 53°53' E 008°43'28 5.6
2016-Sep-27 14:33N 54°09' E 009°22'2 1.9
2016-Sep-27 13:31N 54°10' E 009°25'19 6.4
2016-Sep-27 10:33N 54°22' E 009°50'83 8.3
2016-Sep-27 00:33N 54°28' E 012°12'4912.2
2016-Sep-26 20:33N 54°55' E 013°22'1313.0
2016-Sep-26 19:33N 54°60' E 013°43'5012.6
2016-Sep-26 15:33N 55°32' E 014°51'2512.5
2016-Sep-26 13:33N 55°44' E 015°30'2812.9
2016-Sep-26 11:23N 55°58' E 016°14'316 9.1
2016-Sep-25 00:33N 59°37' E 023°20'2613.0
2016-Sep-24 22:33N 59°45' E 024°09'1312.9
2016-Sep-24 21:33N 59°48' E 024°34'5612.8
2016-Sep-24 17:09N 60°00' E 026°23'712.4
2016-Sep-24 16:33N 60°01' E 026°38'2511.9
2016-Sep-24 14:30N 60°06' E 027°26'2311.6
2016-Sep-24 12:33N 60°09' E 028°11'2412.1
2016-Sep-24 10:33N 60°02' E 028°58'1312.8
2016-Sep-24 09:33N 60°02' E 029°24'10 1.7
2016-Sep-24 03:32N 59°56' E 029°42'0 0.0
2016-Sep-24 02:32N 59°56' E 029°42'0 0.0
2016-Sep-24 01:32N 59°56' E 029°42'0 0.0
2016-Sep-24 00:32N 59°56' E 029°42'16 3.2
2016-Sep-23 19:32N 59°52' E 030°12'0 0.0
2016-Sep-23 17:32N 59°52' E 030°12'0 0.0
2016-Sep-23 16:32N 59°52' E 030°12'0 0.0
2016-Sep-23 15:32N 59°52' E 030°12'0 0.0
2016-Sep-23 13:32N 59°52' E 030°12'1 0.2
2016-Sep-23 09:33N 59°53' E 030°11'0 0.0
2016-Sep-23 06:33N 59°53' E 030°11'0 0.0
2016-Sep-23 04:33N 59°53' E 030°11'0 0.0
2016-Sep-23 03:33N 59°53' E 030°11'0 0.1
2016-Sep-23 02:33N 59°53' E 030°11'7 6.9
2016-Sep-23 01:33N 59°56' E 029°58'1111.1
2016-Sep-23 00:33N 60°00' E 029°38'42 3.4
2016-Sep-22 12:22N 59°40' E 028°24'0 0.0
2016-Sep-22 04:31N 59°40' E 028°24'0 0.0
2016-Sep-22 03:33N 59°40' E 028°24'27 9.0
2016-Sep-22 00:33N 60°07' E 028°15'1312.9
2016-Sep-21 23:33N 60°10' E 027°50'1212.5
2016-Sep-21 22:33N 60°05' E 027°27'7712.6
2016-Sep-21 16:29N 59°46' E 024°59'38212.8
2016-Sep-20 10:33N 55°44' E 015°46'2613.1
2016-Sep-20 08:33N 55°31' E 015°05'1312.7
2016-Sep-20 07:33N 55°25' E 014°45'1312.9
2016-Sep-20 06:33N 55°16' E 014°30'8812.6
2016-Sep-19 23:32N 54°32' E 012°17'4310.8
2016-Sep-19 19:34N 54°35' E 011°03'1312.5
2016-Sep-19 18:33N 54°34' E 010°41'2211.3
2016-Sep-19 16:34N 54°22' E 010°09'8 4.0
2016-Sep-19 14:33N 54°21' E 009°56'6 6.2
2016-Sep-19 13:33N 54°21' E 009°45'7 6.9
2016-Sep-19 12:33N 54°15' E 009°37'8 7.7
2016-Sep-19 11:33N 54°10' E 009°27'15 7.5
2016-Sep-19 09:33N 53°57' E 009°15'7 3.4
2016-Sep-19 07:33N 53°53' E 009°06'9 9.0
2016-Sep-19 06:33N 53°50' E 009°21'28 9.1
2016-Sep-19 03:31N 53°32' E 009°55'0 0.0
2016-Sep-19 02:31N 53°32' E 009°55'0 0.0
2016-Sep-19 00:31N 53°32' E 009°55'0 0.0
2016-Sep-18 19:31N 53°32' E 009°55'  

Dump ship's entire track history